Time;durP1;ratioP1;P1;durP2;ratioP2;P2;SDS_P1;SDS_P2;PMS_P1;PMS_P2;Temp;Humidity;BMP_temperature;BMP_pressure;BME280_temperature;BME280_humidity;BME280_pressure;Samples;Min_cycle;Max_cycle;Signal;HPM_P1;HPM_P2
2022/05/02 00:01:46;;;;;;;4.27;3.87;;;13.30;91.60;;;;;;5079425;28;20446;-49
2022/05/02 00:04:13;;;;;;;8.90;3.77;;;13.30;91.30;;;;;;5079935;28;20467;-42
2022/05/02 00:06:43;;;;;;;5.57;3.83;;;13.30;91.20;;;;;;5079344;28;20911;-47
2022/05/02 00:09:09;;;;;;;4.53;3.30;;;13.30;91.10;;;;;;5079383;28;20540;-51
2022/05/02 00:11:36;;;;;;;10.60;4.03;;;13.30;91.10;;;;;;5079394;28;20474;-49
2022/05/02 00:14:03;;;;;;;6.23;3.70;;;13.30;91.20;;;;;;5079210;28;20898;-50
2022/05/02 00:16:34;;;;;;;7.93;3.83;;;13.20;91.10;;;;;;5079206;28;20438;-47
2022/05/02 00:19:02;;;;;;;6.40;3.57;;;13.20;91.20;;;;;;5079047;28;20442;-46
2022/05/02 00:21:29;;;;;;;4.63;3.30;;;13.30;91.20;;;;;;5079236;28;20503;-52
2022/05/02 00:23:56;;;;;;;6.43;3.67;;;13.30;91.30;;;;;;5079165;28;20489;-47
2022/05/02 00:26:26;;;;;;;6.50;3.80;;;13.30;91.20;;;;;;5079318;28;20443;-46
2022/05/02 00:28:53;;;;;;;5.93;3.57;;;13.30;91.10;;;;;;5079422;28;20543;-44
2022/05/02 00:31:19;;;;;;;6.33;3.80;;;13.30;91.20;;;;;;5078970;28;20876;-45
2022/05/02 00:33:46;;;;;;;5.43;3.30;;;13.30;91.20;;;;;;5079063;28;20446;-49
2022/05/02 00:36:15;;;;;;;7.73;2.93;;;13.30;91.20;;;;;;5078732;28;20438;-51
2022/05/02 00:38:42;;;;;;;5.30;4.00;;;13.30;91.30;;;;;;5078556;28;21152;-51
2022/05/02 00:41:09;;;;;;;4.50;3.30;;;13.30;91.20;;;;;;5078971;28;20875;-52
2022/05/02 00:43:36;;;;;;;5.23;3.27;;;13.30;91.20;;;;;;5078755;28;20466;-47
2022/05/02 00:46:03;;;;;;;5.73;3.53;;;13.30;91.30;;;;;;5078541;28;20435;-45
2022/05/02 00:48:29;;;;;;;7.40;3.07;;;13.30;91.40;;;;;;5078516;28;20469;-47
2022/05/02 00:50:56;;;;;;;6.90;3.07;;;13.20;91.30;;;;;;5078007;28;20477;-48
2022/05/02 00:53:25;;;;;;;4.70;3.20;;;13.20;91.50;;;;;;5078691;28;20519;-48
2022/05/02 00:55:52;;;;;;;5.37;3.30;;;13.20;91.40;;;;;;5078804;28;20453;-52
2022/05/02 00:58:19;;;;;;;4.00;2.90;;;13.20;91.30;;;;;;5078642;28;20481;-49
2022/05/02 01:00:46;;;;;;;3.80;3.33;;;13.20;91.50;;;;;;5078572;28;20442;-49
2022/05/02 01:03:14;;;;;;;5.90;3.50;;;13.30;91.10;;;;;;5078271;28;20454;-48
2022/05/02 01:08:28;;;;;;;14.50;4.37;;;13.30;91.30;;;;;;5077753;28;20423;-49
2022/05/02 01:10:59;;;;;;;4.17;3.40;;;13.30;91.30;;;;;;5078585;28;20459;-45
2022/05/02 01:13:37;;;;;;;4.13;3.33;;;13.30;91.30;;;;;;5078742;28;20426;-45
2022/05/02 01:16:12;;;;;;;5.90;3.80;;;13.30;91.30;;;;;;5079560;28;20461;-56
2022/05/02 01:18:39;;;;;;;6.90;4.43;;;13.30;91.20;;;;;;5079350;28;20441;-46
2022/05/02 01:21:18;;;;;;;4.30;3.50;;;13.20;91.30;;;;;;5079371;28;20500;-48
2022/05/02 01:23:47;;;;;;;4.70;3.33;;;13.20;91.60;;;;;;5078454;28;20481;-50
2022/05/02 01:26:14;;;;;;;6.53;3.07;;;13.20;91.90;;;;;;5078241;28;20443;-48
2022/05/02 01:28:46;;;;;;;7.80;4.07;;;13.10;92.10;;;;;;5077699;28;20454;-48
2022/05/02 01:31:14;;;;;;;6.90;3.70;;;13.10;92.10;;;;;;5078004;28;20931;-52
2022/05/02 01:33:41;;;;;;;5.53;3.30;;;13.00;92.30;;;;;;5078023;28;20833;-48
2022/05/02 01:36:08;;;;;;;8.40;3.93;;;13.00;92.20;;;;;;5078246;28;20458;-50
2022/05/02 01:38:37;;;;;;;3.73;3.00;;;13.00;92.20;;;;;;5077992;28;20452;-40
2022/05/02 01:41:04;;;;;;;14.17;4.87;;;13.00;92.00;;;;;;5077717;28;20442;-49
2022/05/02 01:43:32;;;;;;;8.73;4.70;;;13.00;91.70;;;;;;5077861;28;20528;-48
2022/05/02 01:45:59;;;;;;;7.80;5.17;;;13.00;91.50;;;;;;5077624;28;20529;-45
2022/05/02 01:48:26;;;;;;;13.17;6.63;;;13.00;91.30;;;;;;5078024;28;20457;-50
2022/05/02 01:50:52;;;;;;;13.00;5.20;;;12.90;91.60;;;;;;5077289;28;20842;-49
2022/05/02 01:53:23;;;;;;;9.63;4.77;;;12.90;91.80;;;;;;5077519;28;20443;-45
2022/05/02 01:55:54;;;;;;;9.20;4.93;;;12.80;91.80;;;;;;5077332;28;20461;-52
2022/05/02 01:58:24;;;;;;;7.73;4.70;;;12.70;92.10;;;;;;5078136;28;20427;-49
2022/05/02 02:00:51;;;;;;;6.20;3.53;;;12.60;92.40;;;;;;5078102;28;20472;-50
2022/05/02 02:03:18;;;;;;;7.13;4.27;;;12.60;93.00;;;;;;5077109;28;20455;-50
2022/05/02 02:05:50;;;;;;;6.23;4.23;;;12.60;93.30;;;;;;5077372;28;20941;-50
2022/05/02 02:08:18;;;;;;;7.03;4.10;;;12.60;93.60;;;;;;5077995;28;20461;-44
2022/05/02 02:10:45;;;;;;;10.30;4.23;;;12.50;94.10;;;;;;5077421;28;20490;-49
2022/05/02 02:13:13;;;;;;;7.00;4.10;;;12.40;94.80;;;;;;5077250;28;20450;-51
2022/05/02 02:15:40;;;;;;;6.60;4.23;;;12.40;95.10;;;;;;5077359;28;20450;-51
2022/05/02 02:18:07;;;;;;;9.47;4.63;;;12.30;95.70;;;;;;5077974;28;20439;-52
2022/05/02 02:20:42;;;;;;;6.37;4.50;;;12.30;96.10;;;;;;5077978;28;20445;-50
2022/05/02 02:23:09;;;;;;;12.13;5.47;;;12.20;96.50;;;;;;5077503;28;20831;-50
2022/05/02 02:25:38;;;;;;;10.03;5.30;;;12.20;96.80;;;;;;5077424;28;20971;-52
2022/05/02 02:28:05;;;;;;;8.87;4.40;;;12.10;97.10;;;;;;5077607;28;20461;-52
2022/05/02 02:30:34;;;;;;;8.47;5.10;;;12.10;97.40;;;;;;5077876;28;20776;-48
2022/05/02 02:33:02;;;;;;;4.33;3.37;;;12.10;97.70;;;;;;5077571;28;20468;-50
2022/05/02 02:35:36;;;;;;;6.17;3.97;;;12.10;98.10;;;;;;5077553;28;20454;-51
2022/05/02 02:38:03;;;;;;;5.37;4.07;;;12.10;98.50;;;;;;5077761;28;20499;-50
2022/05/02 02:40:30;;;;;;;6.37;3.83;;;12.00;98.20;;;;;;5078153;28;20455;-47
2022/05/02 02:42:57;;;;;;;6.60;4.40;;;12.00;98.40;;;;;;5078250;28;20504;-55
2022/05/02 02:45:24;;;;;;;7.00;3.73;;;12.00;98.80;;;;;;5078008;28;20505;-49
2022/05/02 02:47:52;;;;;;;5.70;4.40;;;12.10;98.70;;;;;;5078034;28;20492;-53
2022/05/02 02:50:19;;;;;;;7.13;4.83;;;12.00;98.60;;;;;;5078308;28;20620;-42
2022/05/02 02:52:45;;;;;;;7.50;4.50;;;12.10;98.70;;;;;;5078146;28;20915;-48
2022/05/02 02:55:12;;;;;;;5.00;3.63;;;12.10;98.50;;;;;;5077907;28;20446;-50
2022/05/02 02:57:39;;;;;;;5.17;3.93;;;12.10;98.40;;;;;;5077338;28;20434;-46
2022/05/02 03:00:07;;;;;;;12.00;5.07;;;12.00;98.40;;;;;;5076791;28;20856;-49
2022/05/02 03:02:36;;;;;;;7.20;4.50;;;12.00;98.70;;;;;;5077434;28;20462;-52
2022/05/02 03:07:49;;;;;;;7.13;3.77;;;11.90;98.90;;;;;;5077615;28;20429;-46
2022/05/02 03:10:16;;;;;;;5.67;4.17;;;11.90;99.30;;;;;;5077138;28;20477;-47
2022/05/02 03:12:46;;;;;;;8.23;4.77;;;11.90;99.30;;;;;;5076874;28;20515;-47
2022/05/02 03:15:13;;;;;;;8.60;5.17;;;11.80;99.00;;;;;;5080234;28;20985;-50
2022/05/02 03:17:40;;;;;;;8.83;4.60;;;11.80;99.40;;;;;;5080013;28;20426;-49
2022/05/02 03:20:09;;;;;;;6.90;3.97;;;11.80;99.20;;;;;;5080273;28;20438;-47
2022/05/02 03:22:36;;;;;;;7.43;4.03;;;11.70;99.50;;;;;;5080037;28;20477;-44
2022/05/02 03:25:03;;;;;;;9.53;4.13;;;11.70;99.60;;;;;;5080314;28;20457;-47
2022/05/02 03:27:33;;;;;;;5.70;4.43;;;11.70;99.90;;;;;;5080509;28;20454;-47
2022/05/02 03:30:00;;;;;;;6.87;4.63;;;11.60;99.90;;;;;;5080643;28;20482;-48
2022/05/02 03:32:26;;;;;;;5.43;3.87;;;11.50;99.90;;;;;;5080500;28;20450;-49
2022/05/02 03:34:53;;;;;;;7.30;4.03;;;11.50;99.90;;;;;;5080569;28;20453;-48
2022/05/02 03:37:22;;;;;;;5.97;4.23;;;11.50;99.90;;;;;;5080468;28;20435;-50
2022/05/02 03:39:50;;;;;;;6.50;3.80;;;11.50;99.90;;;;;;5080752;28;20442;-46
2022/05/02 03:42:23;;;;;;;7.97;5.37;;;11.40;99.90;;;;;;5080688;28;20649;-50
2022/05/02 03:44:49;;;;;;;8.70;5.43;;;11.40;99.90;;;;;;5079522;28;20461;-53
2022/05/02 03:47:16;;;;;;;7.67;4.00;;;11.30;99.90;;;;;;5079292;28;20468;-50
2022/05/02 03:49:43;;;;;;;7.20;4.40;;;11.30;99.90;;;;;;5079746;28;20486;-44
2022/05/02 03:52:10;;;;;;;12.13;4.70;;;11.30;99.90;;;;;;5079664;28;20548;-47
2022/05/02 03:54:38;;;;;;;8.60;4.80;;;11.20;99.90;;;;;;5080327;28;20466;-48
2022/05/02 03:57:05;;;;;;;6.83;3.73;;;11.20;99.90;;;;;;5080222;28;20411;-50
2022/05/02 03:59:32;;;;;;;6.23;4.80;;;11.20;99.90;;;;;;5079509;28;20543;-51
2022/05/02 04:01:58;;;;;;;6.57;4.37;;;11.20;99.90;;;;;;5079867;28;20470;-47
2022/05/02 04:04:25;;;;;;;6.33;4.97;;;11.20;99.90;;;;;;5080035;28;20454;-49
2022/05/02 04:06:52;;;;;;;7.60;5.00;;;11.20;99.90;;;;;;5079826;28;20454;-50
2022/05/02 04:09:19;;;;;;;6.67;5.00;;;11.10;99.90;;;;;;5079552;28;20485;-48
2022/05/02 04:11:47;;;;;;;13.47;5.20;;;11.20;99.90;;;;;;5079826;28;20486;-47
2022/05/02 04:14:13;;;;;;;6.07;4.93;;;11.20;99.90;;;;;;5080083;28;20446;-52
2022/05/02 04:16:40;;;;;;;8.67;5.50;;;11.30;99.90;;;;;;5079701;28;20484;-47
2022/05/02 04:19:07;;;;;;;14.37;5.50;;;11.30;99.90;;;;;;5079657;28;20482;-46
2022/05/02 04:21:34;;;;;;;9.23;4.10;;;11.30;99.90;;;;;;5079324;28;20583;-46
2022/05/02 04:24:00;;;;;;;10.07;5.30;;;11.30;99.90;;;;;;5079793;28;20446;-49
2022/05/02 04:26:27;;;;;;;10.43;4.97;;;11.40;99.90;;;;;;5079868;28;20458;-51
2022/05/02 04:28:55;;;;;;;10.57;5.00;;;11.40;99.90;;;;;;5079707;28;20474;-49
2022/05/02 04:31:23;;;;;;;13.00;5.57;;;11.40;99.90;;;;;;5079422;28;20512;-52
2022/05/02 04:33:50;;;;;;;7.70;5.40;;;11.40;99.90;;;;;;5079514;28;20920;-45
2022/05/02 04:36:16;;;;;;;7.97;5.57;;;11.40;99.90;;;;;;5079051;28;20458;-49
2022/05/02 04:38:43;;;;;;;6.50;4.83;;;11.30;99.90;;;;;;5079120;28;20469;-46
2022/05/02 04:41:13;;;;;;;8.47;4.93;;;11.30;99.90;;;;;;5079375;28;20482;-42
2022/05/02 04:43:40;;;;;;;7.10;4.93;;;11.30;99.90;;;;;;5079011;28;20494;-46
2022/05/02 04:46:08;;;;;;;8.57;5.00;;;11.20;99.90;;;;;;5079327;28;20782;-48
2022/05/02 04:48:35;;;;;;;7.50;4.93;;;11.30;99.90;;;;;;5078764;28;20470;-45
2022/05/02 04:51:02;;;;;;;11.13;5.53;;;11.30;99.90;;;;;;5079267;28;20588;-46
2022/05/02 04:53:28;;;;;;;5.20;3.70;;;11.30;99.90;;;;;;5079100;28;20517;-48
2022/05/02 04:55:55;;;;;;;6.80;4.77;;;11.20;99.90;;;;;;5079511;28;20438;-50
2022/05/02 04:58:22;;;;;;;8.30;5.13;;;11.30;99.90;;;;;;5078900;28;20472;-45
2022/05/02 05:00:49;;;;;;;5.60;3.83;;;11.30;99.90;;;;;;5079288;28;20490;-49
2022/05/02 05:03:17;;;;;;;7.00;4.93;;;11.30;99.90;;;;;;5078943;28;20454;-51
2022/05/02 05:05:43;;;;;;;6.80;5.30;;;11.30;99.90;;;;;;5078613;28;20583;-48
2022/05/02 05:08:10;;;;;;;8.67;4.60;;;11.30;99.90;;;;;;5078951;28;20501;-51
2022/05/02 05:10:43;;;;;;;11.40;5.90;;;11.30;99.90;;;;;;5079466;28;20442;-52
2022/05/02 05:13:13;;;;;;;11.23;5.10;;;11.40;99.90;;;;;;5078644;28;20442;-50
2022/05/02 05:16:22;;;;;;;9.23;5.00;;;11.40;99.90;;;;;;5078512;28;20446;-50
2022/05/02 05:19:05;;;;;;;9.20;5.17;;;11.40;99.90;;;;;;5078422;28;20608;-44
2022/05/02 05:21:41;;;;;;;10.53;5.33;;;11.50;99.90;;;;;;5078071;28;20486;-51
2022/05/02 05:24:36;;;;;;;7.57;4.63;;;11.50;99.90;;;;;;5078445;28;20434;-49
2022/05/02 05:27:14;;;;;;;9.50;5.23;;;11.50;99.90;;;;;;5071553;28;20480;-51
2022/05/02 05:29:47;;;;;;;7.57;5.50;;;11.60;99.90;;;;;;5078572;28;20423;-47
2022/05/02 05:32:28;;;;;;;8.33;5.53;;;11.60;99.90;;;;;;5078263;28;20524;-51
2022/05/02 05:35:05;;;;;;;8.63;5.40;;;11.70;99.90;;;;;;5078222;28;20415;-49
2022/05/02 05:38:02;;;;;;;12.73;4.70;;;11.80;99.90;;;;;;5077374;28;20437;-50
2022/05/02 05:40:36;;;;;;;10.80;5.90;;;11.90;99.90;;;;;;5078342;28;20519;-46
2022/05/02 05:43:38;;;;;;;7.63;5.67;;;12.00;99.90;;;;;;5078266;28;20462;-48
2022/05/02 05:46:30;;;;;;;13.20;5.47;;;12.10;99.90;;;;;;5075771;28;20438;-50
2022/05/02 05:49:09;;;;;;;5.80;4.87;;;12.20;99.90;;;;;;5078350;28;20418;-50
2022/05/02 05:51:48;;;;;;;8.30;5.10;;;12.30;99.90;;;;;;5078618;28;20934;-51
2022/05/02 05:54:48;;;;;;;6.57;4.33;;;12.30;99.90;;;;;;5078050;28;20430;-51
2022/05/02 05:57:24;;;;;;;7.90;4.87;;;12.40;99.90;;;;;;5077523;28;20557;-47
2022/05/02 06:00:04;;;;;;;6.20;4.90;;;12.50;99.90;;;;;;5077846;28;20867;-50
2022/05/02 06:02:39;;;;;;;9.20;5.57;;;12.70;99.90;;;;;;5077582;28;20469;-49
2022/05/02 06:05:07;;;;;;;6.30;4.87;;;12.70;99.90;;;;;;5077447;28;20446;-46
2022/05/02 06:07:36;;;;;;;9.33;5.30;;;12.80;99.90;;;;;;5077499;28;20535;-51
2022/05/02 06:10:05;;;;;;;5.43;4.20;;;12.90;99.90;;;;;;5077249;28;20450;-47
2022/05/02 06:12:32;;;;;;;7.97;4.23;;;13.00;99.90;;;;;;5090537;28;20962;-50
2022/05/02 06:20:39;;;;;;;8.53;5.00;;;13.30;98.00;;;;;;5093371;28;20530;-45
2022/05/02 06:23:09;;;;;;;11.43;3.80;;;13.30;96.80;;;;;;5094088;28;20414;-48
2022/05/02 06:25:37;;;;;;;7.30;4.40;;;13.40;96.20;;;;;;5093896;28;20918;-42
2022/05/02 06:28:05;;;;;;;5.10;4.00;;;13.50;96.10;;;;;;5094509;28;20438;-48
2022/05/02 06:30:34;;;;;;;8.30;4.00;;;13.60;97.20;;;;;;5094753;28;20958;-46
2022/05/02 06:33:10;;;;;;;6.63;4.87;;;13.80;96.50;;;;;;5095023;28;20418;-51
2022/05/02 06:35:49;;;;;;;9.23;4.20;;;14.00;95.30;;;;;;5095007;28;20501;-45
2022/05/02 06:38:28;;;;;;;9.93;4.90;;;14.20;94.10;;;;;;5094248;28;20480;-47
2022/05/02 06:41:05;;;;;;;5.40;3.90;;;14.30;93.40;;;;;;5094014;28;20473;-44
2022/05/02 06:43:37;;;;;;;7.20;4.00;;;14.40;93.00;;;;;;5094294;28;20422;-51
2022/05/02 06:46:14;;;;;;;6.27;3.70;;;14.50;90.30;;;;;;5084811;28;20474;-47
2022/05/02 06:48:43;;;;;;;3.43;3.03;;;14.60;90.10;;;;;;5061585;28;20448;-50
2022/05/02 06:51:14;;;;;;;7.83;3.17;;;14.70;89.30;;;;;;5073199;28;20439;-44
2022/05/02 06:54:13;;;;;;;7.50;4.17;;;14.80;87.40;;;;;;5088705;28;21076;-47
2022/05/02 06:56:43;;;;;;;10.00;3.90;;;14.90;87.00;;;;;;5078130;28;20458;-46
2022/05/02 06:59:21;;;;;;;5.40;3.43;;;15.10;85.40;;;;;;5085406;28;20458;-44
2022/05/02 07:01:50;;;;;;;5.20;4.70;;;15.20;84.50;;;;;;5097528;28;20496;-41
2022/05/02 07:04:34;;;;;;;4.87;4.10;;;15.30;85.20;;;;;;5097651;28;20453;-43
2022/05/02 07:07:21;;;;;;;15.00;4.70;;;15.30;85.30;;;;;;5097271;28;20465;-45
2022/05/02 07:09:53;;;;;;;5.90;4.30;;;15.40;86.30;;;;;;5097848;28;20450;-47
2022/05/02 07:12:22;;;;;;;4.80;3.97;;;15.50;86.70;;;;;;5097955;28;20497;-39
2022/05/02 07:15:04;;;;;;;5.50;3.90;;;15.50;88.00;;;;;;5097158;28;20442;-39
2022/05/02 07:17:45;;;;;;;11.37;4.30;;;15.50;87.40;;;;;;5097021;28;20441;-44
2022/05/02 07:20:18;;;;;;;8.80;4.80;;;15.60;88.70;;;;;;5096468;28;20480;-51
2022/05/02 07:22:56;;;;;;;6.73;4.03;;;15.70;87.30;;;;;;5096952;28;20461;-43
2022/05/02 07:25:25;;;;;;;6.93;3.70;;;15.80;86.60;;;;;;5097483;28;20466;-47
2022/05/02 07:28:13;;;;;;;6.40;4.23;;;15.90;85.60;;;;;;5096633;28;20454;-41
2022/05/02 07:30:40;;;;;;;7.57;4.30;;;16.00;85.80;;;;;;5091819;28;20523;-46
2022/05/02 07:33:10;;;;;;;7.03;4.70;;;16.10;85.30;;;;;;5080799;28;20430;-48
2022/05/02 07:35:41;;;;;;;6.93;4.40;;;16.30;86.00;;;;;;5095910;28;20457;-44
2022/05/02 07:38:08;;;;;;;11.20;4.40;;;16.40;85.10;;;;;;5096020;28;20482;-42
2022/05/02 07:41:22;;;;;;;9.30;5.10;;;16.50;85.00;;;;;;5094841;28;20482;-46
2022/05/02 07:43:28;;;;;;;5.00;3.97;;;16.70;83.70;;;;;;5095980;28;20460;-53
2022/05/02 07:45:56;;;;;;;6.33;4.27;;;17.10;86.30;;;;;;5084895;28;20423;-47
2022/05/02 07:48:23;;;;;;;8.50;5.00;;;18.00;82.00;;;;;;5076422;28;20498;-48
2022/05/02 07:50:51;;;;;;;6.13;4.20;;;19.60;77.90;;;;;;5077398;28;20467;-47
2022/05/02 07:53:19;;;;;;;8.70;3.80;;;21.60;70.20;;;;;;5076620;28;20431;-41
2022/05/02 07:55:50;;;;;;;4.80;3.53;;;23.50;64.10;;;;;;5076833;28;20447;-46
2022/05/02 07:58:18;;;;;;;9.23;4.93;;;25.30;58.00;;;;;;5076804;28;20463;-43
2022/05/02 08:00:45;;;;;;;5.03;3.73;;;26.80;53.10;;;;;;5077078;28;20476;-47
2022/05/02 08:03:14;;;;;;;5.83;4.13;;;27.70;49.30;;;;;;5076492;28;20440;-44
2022/05/02 08:05:45;;;;;;;4.70;4.00;;;28.60;46.20;;;;;;5076698;28;20506;-39
2022/05/02 08:08:18;;;;;;;8.87;4.43;;;28.90;45.00;;;;;;5076635;28;20435;-44
2022/05/02 08:10:56;;;;;;;5.63;4.90;;;29.40;43.70;;;;;;5076382;28;20518;-45
2022/05/02 08:13:44;;;;;;;4.93;4.30;;;30.10;42.00;;;;;;5076721;28;20457;-44
2022/05/02 08:16:19;;;;;;;4.13;3.37;;;30.80;40.70;;;;;;5077365;28;20884;-40
2022/05/02 08:19:14;;;;;;;9.10;4.50;;;31.00;39.40;;;;;;5077140;28;20438;-51
2022/05/02 08:21:44;;;;;;;6.70;6.00;;;31.40;38.30;;;;;;5076517;28;20451;-46
2022/05/02 08:27:31;;;;;;;5.80;3.67;;;31.40;37.50;;;;;;5055936;28;20415;-45
2022/05/02 08:30:06;;;;;;;6.20;4.00;;;31.20;37.80;;;;;;5077036;28;20515;-44
2022/05/02 08:32:43;;;;;;;6.23;4.63;;;31.30;37.20;;;;;;5076617;28;20459;-42
2022/05/02 08:35:14;;;;;;;7.20;4.10;;;31.20;36.80;;;;;;5076657;28;20427;-43
2022/05/02 08:37:58;;;;;;;6.00;4.83;;;31.30;36.50;;;;;;5077038;28;20466;-42
2022/05/02 08:40:52;;;;;;;4.30;3.90;;;30.90;36.70;;;;;;5077948;28;20503;-48
2022/05/02 08:44:06;;;;;;;4.63;4.23;;;30.80;37.00;;;;;;5076901;28;20424;-46
2022/05/02 08:47:10;;;;;;;4.93;4.13;;;30.20;37.10;;;;;;5075953;28;20431;-43
2022/05/02 08:50:09;;;;;;;5.57;4.27;;;30.10;37.60;;;;;;5075307;28;20438;-44
2022/05/02 08:53:20;;;;;;;4.37;3.97;;;30.10;37.80;;;;;;5076480;28;20411;-43
2022/05/02 08:55:56;;;;;;;4.07;3.67;;;30.20;37.70;;;;;;5076489;28;20436;-42
2022/05/02 08:59:09;;;;;;;8.73;4.70;;;29.90;38.20;;;;;;5075916;28;20463;-46
2022/05/02 09:02:18;;;;;;;4.93;3.43;;;30.10;37.60;;;;;;5076159;28;20497;-39
2022/05/02 09:05:35;;;;;;;4.50;3.73;;;29.90;37.30;;;;;;5075991;28;21040;-50
2022/05/02 09:08:30;;;;;;;4.20;3.80;;;29.90;37.20;;;;;;5075536;28;20479;-42
2022/05/02 09:11:12;;;;;;;10.37;4.47;;;29.80;37.20;;;;;;5074617;28;20498;-49
2022/05/02 09:14:11;;;;;;;5.03;3.60;;;29.70;37.70;;;;;;5075393;28;20443;-40
2022/05/02 09:17:03;;;;;;;6.20;4.20;;;29.70;37.70;;;;;;5075556;28;20420;-42
2022/05/02 09:20:08;;;;;;;8.70;4.57;;;29.60;37.80;;;;;;5075521;28;20507;-69
2022/05/02 09:23:11;;;;;;;4.37;3.50;;;29.80;37.70;;;;;;5071024;28;20543;-67
2022/05/02 09:25:57;;;;;;;3.90;3.10;;;29.40;38.00;;;;;;5069460;28;20797;-66
2022/05/02 09:28:30;;;;;;;7.30;4.30;;;29.20;37.80;;;;;;5070204;28;20438;-67
2022/05/02 09:31:17;;;;;;;5.30;4.03;;;29.20;37.40;;;;;;5068451;28;20471;-67
2022/05/02 09:33:49;;;;;;;4.07;3.70;;;29.20;38.40;;;;;;5070871;28;20439;-62
2022/05/02 09:36:28;;;;;;;4.00;3.60;;;29.20;37.70;;;;;;5072551;28;20416;-66
2022/05/02 09:39:04;;;;;;;4.70;3.90;;;29.20;38.00;;;;;;5073744;28;20491;-71
2022/05/02 09:41:51;;;;;;;5.47;4.97;;;29.10;38.00;;;;;;5072097;28;20467;-64
2022/05/02 09:50:38;;;;;;;7.00;3.43;;;28.30;38.30;;;;;;5072651;28;20594;-65
2022/05/02 09:53:17;;;;;;;5.67;4.40;;;28.20;39.40;;;;;;5074224;28;20441;-64
2022/05/02 09:58:43;;;;;;;6.53;3.80;;;28.70;38.80;;;;;;5071799;28;20458;-71
2022/05/02 10:01:17;;;;;;;5.43;3.77;;;29.00;38.40;;;;;;5072798;28;20419;-39
2022/05/02 10:04:19;;;;;;;7.07;6.23;;;29.00;39.20;;;;;;5073459;28;20466;-69
2022/05/02 10:06:50;;;;;;;4.80;4.20;;;29.00;38.60;;;;;;5059377;28;20446;-60
2022/05/02 10:09:31;;;;;;;5.07;3.90;;;29.00;38.50;;;;;;5072812;28;20453;-72
2022/05/02 10:12:12;;;;;;;6.63;3.60;;;28.90;38.80;;;;;;5073728;28;20502;-69
2022/05/02 10:14:56;;;;;;;5.93;4.77;;;29.00;38.10;;;;;;5072203;28;20470;-69
2022/05/02 10:17:40;;;;;;;4.00;3.70;;;29.00;38.90;;;;;;5071730;28;20527;-69
2022/05/02 10:20:16;;;;;;;5.13;4.30;;;28.80;38.90;;;;;;5072755;28;20440;-67
2022/05/02 10:22:58;;;;;;;4.83;3.93;;;28.60;38.60;;;;;;5074527;28;20483;-59
2022/05/02 10:25:40;;;;;;;11.70;4.70;;;28.10;38.50;;;;;;5077239;28;20447;-67
2022/05/02 10:28:37;;;;;;;5.00;4.47;;;27.30;39.90;;;;;;5076477;28;20465;-69
2022/05/02 10:31:06;;;;;;;5.63;4.77;;;26.60;40.60;;;;;;5076621;28;20505;-70
2022/05/02 10:33:37;;;;;;;4.57;3.80;;;26.20;41.30;;;;;;5077241;28;20439;-64
2022/05/02 10:36:08;;;;;;;12.43;4.13;;;26.20;42.00;;;;;;5076392;28;20466;-66
2022/05/02 10:38:43;;;;;;;7.17;4.47;;;26.30;42.50;;;;;;5075512;28;20435;-69
2022/05/02 10:41:16;;;;;;;8.10;4.40;;;26.50;42.00;;;;;;5074938;28;20498;-67
2022/05/02 10:43:50;;;;;;;9.10;4.87;;;26.30;42.10;;;;;;5075696;28;20485;-65
2022/05/02 10:46:18;;;;;;;5.33;4.30;;;26.30;41.90;;;;;;5076105;28;20470;-72
2022/05/02 10:48:51;;;;;;;5.67;4.57;;;25.90;42.00;;;;;;5075271;28;20486;-67
2022/05/02 10:51:30;;;;;;;6.17;5.13;;;25.60;42.40;;;;;;5075533;28;20502;-69
2022/05/02 10:54:15;;;;;;;7.23;5.00;;;25.30;43.20;;;;;;5075445;28;20457;-64
2022/05/02 10:56:44;;;;;;;8.50;5.00;;;25.00;43.20;;;;;;5076242;28;20473;-74
2022/05/02 10:59:13;;;;;;;7.37;4.93;;;24.70;44.10;;;;;;5075715;28;20469;-63
2022/05/02 11:02:25;;;;;;;5.57;4.43;;;24.60;43.70;;;;;;5076708;28;20475;-66
2022/05/02 11:05:10;;;;;;;5.07;4.57;;;24.60;45.00;;;;;;5075586;28;20423;-67
2022/05/02 11:07:55;;;;;;;5.23;4.73;;;24.70;44.20;;;;;;5073826;28;20428;-62
2022/05/02 11:10:24;;;;;;;7.20;4.70;;;24.60;44.10;;;;;;5077282;28;20864;-68
2022/05/02 11:13:01;;;;;;;4.53;4.13;;;24.40;44.50;;;;;;5077328;28;20884;-63
2022/05/02 11:15:37;;;;;;;7.73;4.30;;;24.30;44.90;;;;;;5076031;28;20410;-65
2022/05/02 11:20:41;;;;;;;5.00;3.93;;;24.30;44.80;;;;;;5075815;28;20453;-57
2022/05/02 11:21:06;;;;;;;5.70;5.20;;;24.30;44.50;;;;;;5075390;28;20466;-71
2022/05/02 11:23:52;;;;;;;4.80;4.30;;;24.40;44.70;;;;;;5074347;28;20490;-65
2022/05/02 11:26:27;;;;;;;5.80;4.40;;;24.20;45.30;;;;;;5075895;28;20427;-66
2022/05/02 11:29:08;;;;;;;7.50;5.10;;;24.00;45.40;;;;;;5074802;28;20464;-71
2022/05/02 11:31:40;;;;;;;5.30;4.80;;;23.60;44.80;;;;;;5073962;28;20419;-73
2022/05/02 11:34:19;;;;;;;6.07;5.37;;;23.30;45.80;;;;;;5072720;28;20416;-69
2022/05/02 11:36:52;;;;;;;5.43;4.03;;;23.00;45.70;;;;;;5073943;28;20467;-67
2022/05/02 11:39:25;;;;;;;6.63;4.97;;;22.80;46.80;;;;;;5074733;28;20451;-69
2022/05/02 11:41:57;;;;;;;6.60;5.23;;;22.80;47.40;;;;;;5075572;28;20502;-64
2022/05/02 11:44:34;;;;;;;5.87;4.40;;;22.80;47.30;;;;;;5077241;28;20477;-72
2022/05/02 11:47:13;;;;;;;7.13;5.57;;;22.90;47.50;;;;;;5076642;28;20455;-67
2022/05/02 11:49:53;;;;;;;6.43;5.83;;;22.90;47.20;;;;;;5078314;28;20470;-71
2022/05/02 11:52:30;;;;;;;6.00;5.10;;;23.00;46.80;;;;;;5076971;28;20447;-63
2022/05/02 11:55:02;;;;;;;6.30;4.87;;;22.80;46.00;;;;;;5077906;28;20487;-58
2022/05/02 11:57:36;;;;;;;8.00;4.43;;;22.60;46.90;;;;;;5076821;28;20407;-57
2022/05/02 12:00:07;;;;;;;5.40;4.80;;;22.50;47.50;;;;;;5075988;28;20420;-60
2022/05/02 12:02:54;;;;;;;8.23;4.10;;;22.40;47.30;;;;;;5076952;28;20502;-56
2022/05/02 12:05:32;;;;;;;5.30;4.60;;;22.50;47.40;;;;;;5077561;28;20484;-64
2022/05/02 12:08:00;;;;;;;7.57;4.50;;;22.50;47.90;;;;;;5077734;28;20435;-67
2022/05/02 12:10:39;;;;;;;8.73;5.30;;;22.50;47.60;;;;;;5077470;28;20439;-59
2022/05/02 12:13:12;;;;;;;5.07;4.27;;;22.60;47.70;;;;;;5077188;28;20471;-61
2022/05/02 12:15:58;;;;;;;9.77;5.33;;;22.60;47.60;;;;;;5077110;28;20825;-69
2022/05/02 12:18:39;;;;;;;4.37;3.90;;;22.60;47.60;;;;;;5077160;28;20432;-67
2022/05/02 12:21:07;;;;;;;7.50;5.00;;;22.70;47.80;;;;;;5077675;28;20419;-67
2022/05/02 12:23:37;;;;;;;7.00;5.93;;;22.60;47.50;;;;;;5077423;28;20483;-58
2022/05/02 12:26:17;;;;;;;5.53;4.67;;;22.60;47.40;;;;;;5077105;28;20466;-51
2022/05/02 12:28:45;;;;;;;6.40;4.47;;;22.60;47.70;;;;;;5076382;28;20438;-61
2022/05/02 12:31:16;;;;;;;6.23;4.63;;;22.60;47.80;;;;;;5077328;28;20411;-68
2022/05/02 12:33:44;;;;;;;5.40;4.33;;;22.30;47.20;;;;;;5077000;28;20424;-62
2022/05/02 12:36:16;;;;;;;7.77;4.33;;;22.00;47.90;;;;;;5076863;28;20455;-66
2022/05/02 12:38:50;;;;;;;6.00;5.20;;;21.90;48.60;;;;;;5076345;28;20435;-58
2022/05/02 12:41:23;;;;;;;9.57;4.83;;;21.90;47.70;;;;;;5077204;28;20480;-63
2022/05/02 12:43:53;;;;;;;7.10;4.17;;;21.90;48.30;;;;;;5076521;28;20467;-66
2022/05/02 12:46:24;;;;;;;6.40;4.40;;;21.90;47.90;;;;;;5075630;28;20456;-63
2022/05/02 12:48:59;;;;;;;6.07;4.30;;;22.00;48.90;;;;;;5076522;28;20463;-58
2022/05/02 12:51:28;;;;;;;5.73;4.40;;;22.00;49.00;;;;;;5076680;28;20416;-67
2022/05/02 12:54:12;;;;;;;5.43;4.87;;;22.00;48.30;;;;;;5076719;28;20479;-63
2022/05/02 13:00:30;;;;;;;4.63;3.70;;;21.70;48.50;;;;;;5076461;28;20447;-65
2022/05/02 13:02:36;;;;;;;4.83;4.40;;;21.90;49.60;;;;;;5076017;28;20493;-65
2022/05/02 13:05:09;;;;;;;8.00;4.40;;;22.10;49.70;;;;;;5075581;28;20431;-57
2022/05/02 13:07:45;;;;;;;3.93;3.53;;;22.00;49.70;;;;;;5076268;28;20416;-68
2022/05/02 13:10:22;;;;;;;6.33;3.57;;;22.00;50.30;;;;;;5076069;28;20432;-63
2022/05/02 13:13:03;;;;;;;4.90;4.30;;;22.10;50.30;;;;;;5076148;28;20414;-62
2022/05/02 13:15:34;;;;;;;5.80;4.20;;;22.20;49.80;;;;;;5076603;28;20467;-61
2022/05/02 13:18:03;;;;;;;6.10;4.23;;;22.30;49.70;;;;;;5076272;28;20442;-62
2022/05/02 13:20:32;;;;;;;9.30;6.47;;;22.40;49.40;;;;;;5075655;28;20459;-61
2022/05/02 13:23:04;;;;;;;6.50;4.67;;;22.40;49.40;;;;;;5076096;28;20490;-66
2022/05/02 13:26:01;;;;;;;7.60;3.90;;;22.50;49.50;;;;;;5076455;28;20467;-59
2022/05/02 13:28:43;;;;;;;5.10;4.60;;;22.60;49.60;;;;;;5076230;28;20749;-68
2022/05/02 13:31:19;;;;;;;8.33;4.10;;;22.70;49.90;;;;;;5075855;28;20495;-64
2022/05/02 13:33:53;;;;;;;5.60;3.90;;;22.60;48.60;;;;;;5076447;28;20447;-64
2022/05/02 13:36:25;;;;;;;5.67;3.80;;;22.50;49.00;;;;;;5075811;28;20466;-66
2022/05/02 13:39:03;;;;;;;7.07;3.83;;;22.60;49.00;;;;;;5075954;28;20415;-61
2022/05/02 13:41:37;;;;;;;4.93;3.80;;;22.70;48.70;;;;;;5075848;28;20451;-65
2022/05/02 13:44:15;;;;;;;6.90;4.50;;;22.70;48.90;;;;;;5076076;28;20511;-59
2022/05/02 13:46:53;;;;;;;4.23;3.27;;;22.70;48.40;;;;;;5075732;28;20426;-64
2022/05/02 13:49:35;;;;;;;4.73;4.00;;;22.80;49.30;;;;;;5075596;28;20450;-61